Time;durP1;ratioP1;P1;durP2;ratioP2;P2;SDS_P1;SDS_P2;PMS_P1;PMS_P2;Temp;Humidity;BMP_temperature;BMP_pressure;BME280_temperature;BME280_humidity;BME280_pressure;Samples;Min_cycle;Max_cycle;Signal;HPM_P1;HPM_P2
2022/09/28 00:02:06;;;;;;;3.45;0.70;;;13.10;99.90;;;;;;6150331;23;20009;-80
2022/09/28 00:04:32;;;;;;;0.60;0.60;;;;;;;;;;6150729;23;20401;-80
2022/09/28 00:06:58;;;;;;;2.70;0.57;;;13.50;99.90;;;;;;6151667;23;20009;-80
2022/09/28 00:09:25;;;;;;;2.58;0.45;;;;;;;;;;6147636;23;20523;-80
2022/09/28 00:11:52;;;;;;;2.67;0.47;;;;;;;;;;6149192;23;20467;-80
2022/09/28 00:14:19;;;;;;;0.50;0.50;;;13.20;99.90;;;;;;6151551;23;20319;-80
2022/09/28 00:16:45;;;;;;;0.40;0.40;;;;;;;;;;6151210;23;20429;-80
2022/09/28 00:19:12;;;;;;;0.93;0.60;;;13.20;99.90;;;;;;6148610;23;20013;-79
2022/09/28 00:21:39;;;;;;;1.33;0.60;;;13.10;99.90;;;;;;6148512;23;20453;-80
2022/09/28 00:24:11;;;;;;;;;;;13.20;99.90;;;;;;6151187;23;20031;-80
2022/09/28 00:26:39;;;;;;;0.50;0.50;;;13.20;99.90;;;;;;6150875;23;20359;-81
2022/09/28 00:29:07;;;;;;;0.52;0.40;;;13.20;99.90;;;;;;6148923;23;20519;-80
2022/09/28 00:31:34;;;;;;;0.60;0.60;;;13.30;99.90;;;;;;6148910;23;19998;-80
2022/09/28 00:34:00;;;;;;;1.75;0.70;;;13.30;99.90;;;;;;6150675;23;20002;-80
2022/09/28 00:36:28;;;;;;;0.40;0.40;;;13.30;99.90;;;;;;6151040;23;20786;-80
2022/09/28 00:38:57;;;;;;;1.35;0.70;;;13.40;99.90;;;;;;6148847;23;20305;-79
2022/09/28 00:41:25;;;;;;;0.70;0.70;;;13.40;99.90;;;;;;6148082;23;20002;-80
2022/09/28 00:43:51;;;;;;;0.47;0.47;;;13.40;99.90;;;;;;6151236;23;20479;-80
2022/09/28 00:46:35;;;;;;;1.63;0.65;;;13.30;99.90;;;;;;6150429;23;20129;-80
2022/09/28 00:49:06;;;;;;;0.40;0.40;;;13.40;99.90;;;;;;6146052;23;20028;-80
2022/09/28 00:51:35;;;;;;;1.00;0.63;;;13.50;99.90;;;;;;6148882;23;20076;-80
2022/09/28 00:54:03;;;;;;;0.55;0.50;;;13.30;99.90;;;;;;6151143;23;20005;-79
2022/09/28 00:56:30;;;;;;;3.05;0.40;;;13.70;99.90;;;;;;6150278;23;20472;-79
2022/09/28 00:58:58;;;;;;;0.70;0.70;;;13.70;99.90;;;;;;6147800;23;20029;-80
2022/09/28 01:01:24;;;;;;;;;;;13.50;99.90;;;;;;6149348;23;20017;-79
2022/09/28 01:03:50;;;;;;;0.55;0.55;;;;;;;;;;6150967;23;20645;-80
2022/09/28 01:06:26;;;;;;;2.65;0.70;;;13.80;99.90;;;;;;6150584;23;20013;-80
2022/09/28 01:08:57;;;;;;;2.40;0.55;;;13.60;99.90;;;;;;6147260;23;20437;-80
2022/09/28 01:11:24;;;;;;;0.63;0.55;;;13.60;99.90;;;;;;6147901;23;20357;-80
2022/09/28 01:13:53;;;;;;;0.52;0.52;;;13.60;99.90;;;;;;6150659;23;20334;-80
2022/09/28 01:16:38;;;;;;;0.57;0.55;;;13.70;99.90;;;;;;6150436;23;20462;-80
2022/09/28 01:19:32;;;;;;;0.68;0.60;;;13.50;99.90;;;;;;6147518;23;20010;-79
2022/09/28 01:22:35;;;;;;;0.40;0.40;;;13.70;99.90;;;;;;6148443;23;20008;-80
2022/09/28 01:25:10;;;;;;;1.67;0.60;;;13.50;99.90;;;;;;6150943;23;20005;-80
2022/09/28 01:27:58;;;;;;;0.60;0.60;;;13.50;99.90;;;;;;6150200;23;20025;-80
2022/09/28 01:30:24;;;;;;;0.70;0.70;;;;;;;;;;6170685;23;20013;-80
2022/09/28 01:33:05;;;;;;;0.50;0.50;;;13.40;99.90;;;;;;6148889;23;20012;-80
2022/09/28 01:35:42;;;;;;;2.60;0.47;;;13.50;99.90;;;;;;6150467;23;20002;-80
2022/09/28 01:38:16;;;;;;;3.53;0.70;;;13.80;99.90;;;;;;6150319;23;20063;-80
2022/09/28 01:40:43;;;;;;;0.40;0.40;;;13.70;99.90;;;;;;6145600;23;20005;-80
2022/09/28 01:43:16;;;;;;;1.75;0.60;;;13.70;99.90;;;;;;6150000;23;20005;-79
2022/09/28 01:45:49;;;;;;;0.50;0.50;;;13.80;99.90;;;;;;6150753;23;20005;-80
2022/09/28 01:48:21;;;;;;;0.60;0.60;;;13.70;99.90;;;;;;6149633;23;20021;-81
2022/09/28 01:50:51;;;;;;;0.60;0.60;;;13.90;99.90;;;;;;6146908;23;20016;-80
2022/09/28 01:53:24;;;;;;;1.30;0.40;;;13.70;99.90;;;;;;6150833;23;20017;-80
2022/09/28 01:56:04;;;;;;;0.60;0.50;;;13.70;99.90;;;;;;6150138;23;20249;-80
2022/09/28 01:58:55;;;;;;;0.60;0.60;;;13.70;99.90;;;;;;6148450;23;20017;-80
2022/09/28 02:01:35;;;;;;;0.95;0.50;;;14.00;99.90;;;;;;6148238;23;20010;-80
2022/09/28 02:04:13;;;;;;;0.40;0.40;;;13.80;99.90;;;;;;6149213;23;20060;-80
2022/09/28 02:07:02;;;;;;;0.63;0.50;;;13.60;99.90;;;;;;6150320;23;20444;-79
2022/09/28 02:09:37;;;;;;;0.50;0.50;;;13.80;99.90;;;;;;6147185;23;20460;-80
2022/09/28 02:12:12;;;;;;;0.98;0.40;;;13.90;99.90;;;;;;6147189;23;20012;-80
2022/09/28 02:14:40;;;;;;;0.40;0.40;;;13.80;99.90;;;;;;6172976;23;20009;-79
2022/09/28 02:17:06;;;;;;;0.40;0.40;;;14.00;99.90;;;;;;6148493;23;20205;-80
2022/09/28 02:19:32;;;;;;;0.50;0.50;;;14.00;99.90;;;;;;6147175;23;20005;-80
2022/09/28 02:22:09;;;;;;;0.50;0.40;;;13.90;99.90;;;;;;6148355;23;20108;-79
2022/09/28 02:24:51;;;;;;;7.28;0.50;;;14.00;99.90;;;;;;6149530;23;20006;-79
2022/09/28 02:27:48;;;;;;;1.38;0.70;;;14.00;99.90;;;;;;6150301;23;20068;-79
2022/09/28 02:30:14;;;;;;;0.38;0.38;;;;;;;;;;6148737;23;20037;-79
2022/09/28 02:32:43;;;;;;;0.50;0.50;;;14.00;99.90;;;;;;6147425;23;20008;-79
2022/09/28 02:35:15;;;;;;;0.52;0.52;;;14.00;99.90;;;;;;6149752;23;20088;-79
2022/09/28 02:37:41;;;;;;;0.40;0.40;;;;;;;;;;6149885;23;20472;-79
2022/09/28 02:40:19;;;;;;;0.47;0.47;;;14.10;99.90;;;;;;6147407;23;20008;-79
2022/09/28 02:43:15;;;;;;;0.60;0.60;;;14.10;99.90;;;;;;6148302;23;20005;-79
2022/09/28 02:45:57;;;;;;;0.40;0.40;;;14.10;99.90;;;;;;6148900;23;19998;-79
2022/09/28 02:48:43;;;;;;;0.40;0.40;;;13.90;99.90;;;;;;6148437;23;20025;-79
2022/09/28 02:51:29;;;;;;;0.40;0.40;;;14.10;99.90;;;;;;6148755;23;20025;-79
2022/09/28 02:54:39;;;;;;;0.70;0.60;;;14.00;99.90;;;;;;6147180;23;20728;-79
2022/09/28 02:57:31;;;;;;;0.30;0.30;;;13.90;99.90;;;;;;6059103;23;20049;-79
2022/09/28 02:59:57;;;;;;;0.40;0.40;;;;;;;;;;6057488;23;20010;-79
2022/09/28 03:02:48;;;;;;;0.50;0.50;;;14.30;99.90;;;;;;6057079;23;20007;-79
2022/09/28 03:05:14;;;;;;;0.55;0.55;;;;;;;;;;6059371;23;20049;-80
2022/09/28 03:07:45;;;;;;;2.95;0.60;;;14.00;99.90;;;;;;6058138;23;20447;-79
2022/09/28 03:10:24;;;;;;;0.43;0.40;;;14.20;99.90;;;;;;6056460;23;20003;-80
2022/09/28 03:12:52;;;;;;;0.40;0.40;;;14.20;99.90;;;;;;6057601;23;20038;-79
2022/09/28 03:15:21;;;;;;;0.40;0.40;;;14.20;99.90;;;;;;6058589;23;20479;-80
2022/09/28 03:17:46;;;;;;;0.40;0.40;;;14.20;99.90;;;;;;6033560;23;20822;-79
2022/09/28 03:20:13;;;;;;;2.60;0.65;;;;;;;;;;6057585;23;20007;-79
2022/09/28 03:22:39;;;;;;;0.50;0.50;;;;;;;;;;6057573;23;20010;-80
2022/09/28 03:25:06;;;;;;;0.50;0.50;;;14.40;99.90;;;;;;6059649;23;20503;-80
2022/09/28 03:27:31;;;;;;;0.40;0.40;;;14.40;99.90;;;;;;6089994;23;20041;-80
2022/09/28 03:29:57;;;;;;;0.40;0.40;;;;;;;;;;6148165;23;20033;-79
2022/09/28 03:32:23;;;;;;;0.60;0.60;;;;;;;;;;6147494;23;20005;-80
2022/09/28 03:34:49;;;;;;;0.40;0.40;;;;;;;;;;6150975;23;20002;-80
2022/09/28 03:37:15;;;;;;;0.43;0.43;;;;;;;;;;6151837;23;20077;-79
2022/09/28 03:39:41;;;;;;;0.40;0.40;;;;;;;;;;6147819;23;20694;-80
2022/09/28 03:42:07;;;;;;;1.30;0.30;;;;;;;;;;6149917;23;20002;-80
2022/09/28 03:44:33;;;;;;;0.40;0.40;;;;;;;;;;6151046;23;20017;-80
2022/09/28 03:46:59;;;;;;;8.60;0.50;;;;;;;;;;6149212;23;19998;-79
2022/09/28 03:49:25;;;;;;;0.40;0.40;;;;;;;;;;6148479;23;20017;-80
2022/09/28 03:51:51;;;;;;;0.45;0.40;;;;;;;;;;6150125;23;19997;-79
2022/09/28 03:54:17;;;;;;;4.40;0.50;;;;;;;;;;6150435;23;20006;-79
2022/09/28 03:56:44;;;;;;;0.50;0.50;;;;;;;;;;6151883;23;20020;-79
2022/09/28 03:59:10;;;;;;;0.50;0.50;;;14.20;99.90;;;;;;6148506;23;20084;-79
2022/09/28 04:01:36;;;;;;;0.40;0.40;;;;;;;;;;6149043;23;20013;-79
2022/09/28 04:04:02;;;;;;;0.45;0.45;;;;;;;;;;6151114;23;20006;-80
2022/09/28 04:06:27;;;;;;;0.63;0.40;;;;;;;;;;6152024;23;20005;-79
2022/09/28 04:08:53;;;;;;;1.25;0.50;;;;;;;;;;6147658;23;20022;-79
2022/09/28 04:11:19;;;;;;;0.68;0.47;;;;;;;;;;6149243;23;20023;-79
2022/09/28 04:13:48;;;;;;;1.75;0.60;;;14.20;99.90;;;;;;6150698;23;20052;-79
2022/09/28 04:16:14;;;;;;;0.50;0.50;;;14.10;99.90;;;;;;6151050;23;20009;-79
2022/09/28 04:18:41;;;;;;;0.30;0.30;;;;;;;;;;6148527;23;20036;-79
2022/09/28 04:21:10;;;;;;;0.63;0.50;;;14.10;99.90;;;;;;6147657;23;20017;-79
2022/09/28 04:23:37;;;;;;;0.65;0.45;;;14.30;99.90;;;;;;6150265;23;20449;-80
2022/09/28 04:26:05;;;;;;;0.40;0.40;;;14.30;99.90;;;;;;6152091;23;20016;-80
2022/09/28 04:31:20;;;;;;;0.30;0.30;;;14.30;99.90;;;;;;6149423;23;19923;-79
2022/09/28 04:33:46;;;;;;;0.40;0.40;;;14.30;99.90;;;;;;6150754;23;20469;-79
2022/09/28 04:36:12;;;;;;;0.60;0.60;;;;;;;;;;6151541;23;20001;-79
2022/09/28 04:38:38;;;;;;;0.82;0.50;;;;;;;;;;6147514;23;20448;-81
2022/09/28 04:41:04;;;;;;;1.17;0.50;;;14.20;99.90;;;;;;6149366;23;20001;-79
2022/09/28 04:43:31;;;;;;;0.57;0.57;;;;;;;;;;6150083;23;20001;-80
2022/09/28 04:46:06;;;;;;;0.40;0.40;;;14.20;99.90;;;;;;6150195;23;20437;-79
2022/09/28 04:48:32;;;;;;;0.70;0.60;;;;;;;;;;6148408;23;20009;-80
2022/09/28 04:50:59;;;;;;;0.40;0.40;;;14.00;99.90;;;;;;6149322;23;20009;-80
2022/09/28 04:53:26;;;;;;;0.40;0.40;;;13.70;99.90;;;;;;6150791;23;20040;-79
2022/09/28 04:55:59;;;;;;;0.30;0.30;;;13.90;99.90;;;;;;6150325;23;20003;-79
2022/09/28 04:58:25;;;;;;;0.57;0.52;;;;;;;;;;6149432;23;20068;-80
2022/09/28 05:00:52;;;;;;;0.50;0.50;;;13.80;99.90;;;;;;6147481;23;20013;-80
2022/09/28 05:03:18;;;;;;;0.77;0.60;;;;;;;;;;6150605;23;20009;-80
2022/09/28 05:05:44;;;;;;;0.52;0.40;;;;;;;;;;6150921;23;20323;-80
2022/09/28 05:08:10;;;;;;;0.55;0.55;;;13.90;99.90;;;;;;6150173;23;20100;-80
2022/09/28 05:10:39;;;;;;;0.30;0.30;;;;;;;;;;6148332;23;19998;-80
2022/09/28 05:13:09;;;;;;;1.92;0.50;;;13.80;99.90;;;;;;6149427;23;20437;-79
2022/09/28 05:15:36;;;;;;;0.43;0.43;;;14.00;99.90;;;;;;6149821;23;19997;-79
2022/09/28 05:18:02;;;;;;;1.33;0.68;;;;;;;;;;6149920;23;20005;-79
2022/09/28 05:20:28;;;;;;;1.13;1.02;;;;;;;;;;6142993;23;20001;-80
2022/09/28 05:22:54;;;;;;;0.73;0.73;;;;;;;;;;6145660;23;20104;-79
2022/09/28 05:25:20;;;;;;;0.50;0.50;;;;;;;;;;6147644;23;20025;-79
2022/09/28 05:27:46;;;;;;;0.50;0.50;;;;;;;;;;6146858;23;20005;-80
2022/09/28 05:30:12;;;;;;;0.68;0.65;;;;;;;;;;6144527;23;20820;-80
2022/09/28 05:32:42;;;;;;;0.57;0.57;;;14.00;99.90;;;;;;6145226;23;20005;-79
2022/09/28 05:35:12;;;;;;;0.70;0.70;;;14.00;99.90;;;;;;6147180;23;20504;-78
2022/09/28 05:37:39;;;;;;;0.80;0.80;;;;;;;;;;6145983;23;20025;-80
2022/09/28 05:40:06;;;;;;;0.98;0.60;;;13.80;99.90;;;;;;6146370;23;20694;-79
2022/09/28 05:42:32;;;;;;;0.50;0.50;;;;;;;;;;6146755;23;20005;-81
2022/09/28 05:44:58;;;;;;;0.68;0.68;;;;;;;;;;6147290;23;20016;-81
2022/09/28 05:47:27;;;;;;;0.95;0.95;;;13.70;99.90;;;;;;6148186;23;20001;-79
2022/09/28 05:49:53;;;;;;;0.95;0.85;;;;;;;;;;6145104;23;20004;-78
2022/09/28 05:52:19;;;;;;;1.48;1.10;;;;;;;;;;6146320;23;20013;-79
2022/09/28 05:54:46;;;;;;;0.93;0.70;;;;;;;;;;6148358;23;20005;-79
2022/09/28 05:57:12;;;;;;;1.58;1.00;;;14.10;99.90;;;;;;6147692;23;20017;-79
2022/09/28 05:59:38;;;;;;;0.55;0.55;;;;;;;;;;6146537;23;20037;-79
2022/09/28 06:02:05;;;;;;;3.42;0.85;;;14.20;99.90;;;;;;6150294;23;20006;-79
2022/09/28 06:04:31;;;;;;;1.25;1.15;;;;;;;;;;6150185;23;20013;-78
2022/09/28 06:06:58;;;;;;;1.10;1.00;;;14.40;99.90;;;;;;6148561;23;20013;-78
2022/09/28 06:09:24;;;;;;;0.70;0.70;;;;;;;;;;6150379;23;20013;-79
2022/09/28 06:11:51;;;;;;;0.75;0.60;;;14.60;99.90;;;;;;6150475;23;20052;-78
2022/09/28 06:14:17;;;;;;;0.57;0.57;;;;;;;;;;6150045;23;20009;-86
2022/09/28 06:16:43;;;;;;;0.40;0.40;;;;;;;;;;6150884;23;20008;-87
2022/09/28 06:19:09;;;;;;;0.50;0.50;;;;;;;;;;6150913;23;20009;-84
2022/09/28 06:21:35;;;;;;;0.68;0.68;;;;;;;;;;6150122;23;20001;-84
2022/09/28 06:24:01;;;;;;;1.27;1.17;;;15.10;99.90;;;;;;6149379;23;20025;-88
2022/09/28 06:26:27;;;;;;;1.13;1.13;;;;;;;;;;6150688;23;20010;-88
2022/09/28 06:28:53;;;;;;;0.60;0.60;;;;;;;;;;6150827;23;20040;-89
2022/09/28 06:31:22;;;;;;;2.35;1.05;;;;;;;;;;6151215;23;20009;-88
2022/09/28 06:33:49;;;;;;;0.73;0.70;;;15.40;99.90;;;;;;6150564;23;20512;-86
2022/09/28 06:36:15;;;;;;;0.82;0.70;;;15.40;99.90;;;;;;6149579;23;20001;-86
2022/09/28 06:38:41;;;;;;;0.63;0.63;;;;;;;;;;6150027;23;20006;-89
2022/09/28 06:41:07;;;;;;;0.50;0.50;;;;;;;;;;6151461;23;20025;-90
2022/09/28 06:43:33;;;;;;;0.73;0.73;;;;;;;;;;6151001;23;20008;-89
2022/09/28 06:46:00;;;;;;;0.55;0.52;;;15.30;99.90;;;;;;6151563;23;20033;-89
2022/09/28 06:48:26;;;;;;;0.90;0.80;;;;;;;;;;6152126;23;20017;-88
2022/09/28 06:50:53;;;;;;;0.90;0.90;;;;;;;;;;6149772;23;20014;-89
2022/09/28 06:53:19;;;;;;;1.20;0.80;;;;;;;;;;6149803;23;20085;-81
2022/09/28 06:55:49;;;;;;;0.50;0.50;;;15.50;99.90;;;;;;6149919;23;20077;-78
2022/09/28 06:58:17;;;;;;;1.02;0.60;;;15.40;99.90;;;;;;6172360;23;20079;-80
2022/09/28 07:00:43;;;;;;;0.50;0.50;;;;;;;;;;6149909;23;20008;-80
2022/09/28 07:03:17;;;;;;;1.65;0.70;;;15.30;99.90;;;;;;6149859;23;20017;-78
2022/09/28 07:05:47;;;;;;;0.50;0.50;;;15.40;99.90;;;;;;6149345;23;20009;-79
2022/09/28 07:08:13;;;;;;;0.52;0.52;;;16.70;99.90;;;;;;6148655;23;20006;-79
2022/09/28 07:10:44;;;;;;;0.60;0.60;;;15.80;99.90;;;;;;6151044;23;20012;-79
2022/09/28 07:13:10;;;;;;;0.60;0.60;;;;;;;;;;6151159;23;20117;-80
2022/09/28 07:15:36;;;;;;;0.55;0.55;;;16.60;99.90;;;;;;6151018;23;20016;-79
2022/09/28 07:18:04;;;;;;;2.55;0.85;;;17.30;99.00;;;;;;6151457;23;20476;-80
2022/09/28 07:20:32;;;;;;;0.60;0.60;;;17.20;98.50;;;;;;6174069;23;20009;-80
2022/09/28 07:23:00;;;;;;;0.80;0.80;;;16.80;99.90;;;;;;6151539;23;20027;-80
2022/09/28 07:25:30;;;;;;;0.60;0.60;;;16.40;99.90;;;;;;6174627;23;20005;-77
2022/09/28 07:27:58;;;;;;;1.45;0.75;;;16.30;99.80;;;;;;6151417;23;20017;-78
2022/09/28 07:30:25;;;;;;;1.20;0.60;;;;;;;;;;6151665;23;20029;-80
2022/09/28 07:32:51;;;;;;;0.68;0.60;;;16.00;99.90;;;;;;6151739;23;20025;-79
2022/09/28 07:35:17;;;;;;;0.50;0.50;;;;;;;;;;6150766;23;20453;-81
2022/09/28 07:37:43;;;;;;;0.88;0.68;;;;;;;;;;6149305;23;20016;-81
2022/09/28 07:42:54;;;;;;;0.63;0.63;;;;;;;;;;6151112;23;20025;-82
2022/09/28 07:45:22;;;;;;;0.70;0.70;;;16.20;99.90;;;;;;6150721;23;20005;-82
2022/09/28 07:47:48;;;;;;;0.60;0.60;;;;;;;;;;6151159;23;20017;-83
2022/09/28 07:50:14;;;;;;;2.45;0.70;;;;;;;;;;6150600;23;20080;-83
2022/09/28 07:52:42;;;;;;;0.70;0.60;;;;;;;;;;6151095;23;20002;-83
2022/09/28 07:55:08;;;;;;;0.75;0.75;;;;;;;;;;6151239;23;20001;-83
2022/09/28 07:57:35;;;;;;;0.77;0.60;;;;;;;;;;6150519;23;20017;-82
2022/09/28 08:00:03;;;;;;;1.08;0.80;;;;;;;;;;6150947;23;19997;-83
2022/09/28 08:02:32;;;;;;;0.55;0.55;;;17.30;99.80;;;;;;6151141;23;20029;-82
2022/09/28 08:04:58;;;;;;;0.70;0.70;;;17.20;99.90;;;;;;6150572;23;20009;-82
2022/09/28 08:07:24;;;;;;;3.00;1.00;;;;;;;;;;6150635;23;20104;-85
2022/09/28 08:09:50;;;;;;;1.23;1.10;;;19.80;98.80;;;;;;6150755;23;20471;-84
2022/09/28 08:12:18;;;;;;;1.02;0.98;;;;;;;;;;6150574;23;20005;-83
2022/09/28 08:14:44;;;;;;;0.70;0.70;;;20.80;90.10;;;;;;6150364;23;20040;-82
2022/09/28 08:17:10;;;;;;;1.30;1.20;;;21.60;94.40;;;;;;6149110;23;20012;-81
2022/09/28 08:22:20;;;;;;;1.10;1.00;;;25.90;84.00;;;;;;6151630;23;20012;-84
2022/09/28 08:24:47;;;;;;;1.20;1.10;;;27.60;74.50;;;;;;6150703;23;20084;-82
2022/09/28 08:27:13;;;;;;;0.87;0.87;;;26.30;65.00;;;;;;6151098;23;20032;-79
2022/09/28 08:29:39;;;;;;;0.65;0.52;;;25.20;71.90;;;;;;6150752;23;20051;-83
2022/09/28 08:32:09;;;;;;;0.50;0.40;;;24.80;74.20;;;;;;6151875;23;20048;-84
2022/09/28 08:34:39;;;;;;;0.20;0.20;;;24.30;66.40;;;;;;6151227;23;20068;-83
2022/09/28 08:37:08;;;;;;;0.40;0.30;;;24.00;66.90;;;;;;6152442;23;20024;-81
2022/09/28 08:39:34;;;;;;;4.05;0.30;;;;;;;;;;6151740;23;20112;-83
2022/09/28 08:42:00;;;;;;;1.00;0.47;;;;;;;;;;6151662;23;20624;-84
2022/09/28 08:44:36;;;;;;;0.50;0.40;;;22.20;71.00;;;;;;6151203;23;20001;-84
2022/09/28 08:48:42;;;;;;;0.40;0.40;;;22.60;70.70;;;;;;6152715;23;20005;-90
2022/09/28 08:49:54;;;;;;;0.93;0.40;;;;;;;;;;6151804;23;20393;-85
2022/09/28 08:52:28;;;;;;;1.85;0.47;;;22.20;82.80;;;;;;6151408;23;20064;-83
2022/09/28 08:55:27;;;;;;;0.57;0.50;;;21.40;73.60;;;;;;6151557;23;19997;-88
2022/09/28 08:58:23;;;;;;;1.02;0.50;;;20.80;81.80;;;;;;6151864;23;20091;-88
2022/09/28 09:00:51;;;;;;;1.23;0.65;;;20.00;79.20;;;;;;6151679;23;20006;-85
2022/09/28 09:03:30;;;;;;;0.70;0.52;;;19.60;80.70;;;;;;6152409;23;20314;-88
2022/09/28 09:06:26;;;;;;;0.65;0.60;;;19.50;91.80;;;;;;6152311;23;20005;-87
2022/09/28 09:09:14;;;;;;;1.00;0.85;;;18.90;84.50;;;;;;6151291;23;20013;-86
2022/09/28 09:12:02;;;;;;;2.15;0.70;;;18.70;85.70;;;;;;6151676;23;20499;-86
2022/09/28 09:14:36;;;;;;;4.85;0.75;;;18.50;86.20;;;;;;6153259;23;20321;-88
2022/09/28 09:17:36;;;;;;;0.70;0.70;;;18.70;94.20;;;;;;6151322;23;20005;-83
2022/09/28 09:20:17;;;;;;;0.63;0.60;;;18.50;87.60;;;;;;6151043;23;20013;-83
2022/09/28 09:22:45;;;;;;;0.90;0.90;;;18.60;87.90;;;;;;6151475;23;20398;-88
2022/09/28 09:25:13;;;;;;;1.05;1.05;;;;;;;;;;6151211;23;20008;-85
2022/09/28 09:27:58;;;;;;;;;;;19.00;87.30;;;;;;6151959;23;20443;-82
2022/09/28 09:30:25;;;;;;;0.73;0.73;;;;;;;;;;6151714;23;19914;-83
2022/09/28 09:33:06;;;;;;;1.17;0.80;;;;;;;;;;6150345;23;20063;-84
2022/09/28 09:35:58;;;;;;;0.60;0.60;;;19.70;83.80;;;;;;6151212;23;20009;-75
2022/09/28 09:38:34;;;;;;;0.70;0.70;;;19.30;86.10;;;;;;6153162;23;20675;-74
2022/09/28 09:42:01;;;;;;;0.50;0.50;;;18.70;92.90;;;;;;6150746;23;20005;-85
2022/09/28 09:44:54;;;;;;;0.60;0.60;;;18.60;84.80;;;;;;6055914;23;20021;-77
2022/09/28 09:47:33;;;;;;;1.02;0.88;;;18.40;93.60;;;;;;6059732;23;20070;-86
2022/09/28 09:50:11;;;;;;;1.08;0.90;;;18.70;85.10;;;;;;6061254;23;20086;-83
2022/09/28 09:52:45;;;;;;;;;;;18.70;85.50;;;;;;6061238;23;20070;-86
2022/09/28 09:55:33;;;;;;;4.13;1.00;;;19.20;88.20;;;;;;6060078;23;19912;-82
2022/09/28 09:58:09;;;;;;;1.30;1.20;;;21.10;77.80;;;;;;6061466;23;20073;-79
2022/09/28 10:00:42;;;;;;;1.10;1.00;;;22.30;69.80;;;;;;6060299;23;20009;-79
2022/09/28 10:03:25;;;;;;;1.00;1.00;;;23.00;67.70;;;;;;6059943;23;20442;-79
2022/09/28 10:06:02;;;;;;;0.82;0.70;;;22.60;64.40;;;;;;6060239;23;20007;-79
2022/09/28 10:08:33;;;;;;;0.40;0.40;;;21.80;66.60;;;;;;6059711;23;20037;-78
2022/09/28 10:11:14;;;;;;;0.93;0.40;;;21.60;65.40;;;;;;6060220;23;20007;-79
2022/09/28 10:13:39;;;;;;;0.47;0.47;;;21.60;78.10;;;;;;6060101;23;20355;-78
2022/09/28 10:16:07;;;;;;;0.57;0.55;;;20.70;74.80;;;;;;6058478;23;20010;-82
2022/09/28 10:18:33;;;;;;;0.47;0.47;;;;;;;;;;6125428;23;20009;-85
2022/09/28 10:20:59;;;;;;;0.40;0.40;;;;;;;;;;6148597;23;20088;-86
2022/09/28 10:23:34;;;;;;;0.50;0.50;;;19.90;76.10;;;;;;6150348;23;20021;-82
2022/09/28 10:26:09;;;;;;;0.60;0.60;;;19.60;72.30;;;;;;6150529;23;20001;-87
2022/09/28 10:28:51;;;;;;;0.50;0.50;;;19.40;74.00;;;;;;6150701;23;20014;-83
2022/09/28 10:31:35;;;;;;;0.60;0.60;;;18.90;82.80;;;;;;6148494;23;20005;-86
2022/09/28 10:34:03;;;;;;;0.52;0.50;;;19.00;80.40;;;;;;6150880;23;20010;-89
2022/09/28 10:36:31;;;;;;;;;;;18.90;78.80;;;;;;6151102;23;20036;-77
2022/09/28 10:38:57;;;;;;;0.60;0.60;;;;;;;;;;6150455;23;20615;-78
2022/09/28 10:41:23;;;;;;;0.60;0.60;;;;;;;;;;6150670;23;20005;-77
2022/09/28 10:44:15;;;;;;;0.70;0.70;;;19.10;82.80;;;;;;6151723;23;20001;-86
2022/09/28 10:46:40;;;;;;;0.70;0.70;;;;;;;;;;6150405;23;20067;-88
2022/09/28 10:49:16;;;;;;;0.60;0.60;;;19.20;81.50;;;;;;6151132;23;20084;-90
2022/09/28 10:51:48;;;;;;;0.70;0.70;;;19.70;80.00;;;;;;6149573;23;20084;-80
2022/09/28 10:54:19;;;;;;;0.73;0.73;;;21.00;79.80;;;;;;6149117;23;20009;-76
2022/09/28 10:56:45;;;;;;;0.90;0.90;;;22.00;82.90;;;;;;6172499;23;20524;-76
2022/09/28 10:59:28;;;;;;;0.50;0.50;;;21.90;70.40;;;;;;6149396;23;20012;-76
2022/09/28 11:02:03;;;;;;;0.45;0.45;;;21.30;82.00;;;;;;6148727;23;20016;-82
2022/09/28 11:04:35;;;;;;;0.80;0.80;;;21.40;71.60;;;;;;6148600;23;20080;-81
2022/09/28 11:07:01;;;;;;;0.50;0.50;;;;;;;;;;6149845;23;20518;-90
2022/09/28 11:09:40;;;;;;;0.40;0.40;;;21.10;72.40;;;;;;6150410;23;20655;-87
2022/09/28 11:12:14;;;;;;;0.50;0.50;;;21.10;72.30;;;;;;6151180;23;20057;-88
2022/09/28 11:14:42;;;;;;;0.40;0.40;;;21.50;76.10;;;;;;6149729;23;20017;-79
2022/09/28 11:17:29;;;;;;;0.57;0.57;;;21.20;70.50;;;;;;6150003;23;20005;-86
2022/09/28 11:20:23;;;;;;;0.30;0.30;;;20.80;81.30;;;;;;6150633;23;20017;-80
2022/09/28 11:22:54;;;;;;;0.52;0.52;;;20.00;72.20;;;;;;6149564;23;20002;-78
2022/09/28 11:25:25;;;;;;;0.40;0.40;;;19.40;87.50;;;;;;6149520;23;20014;-75
2022/09/28 11:27:51;;;;;;;1.48;0.57;;;;;;;;;;6150147;23;20009;-79
2022/09/28 11:30:22;;;;;;;0.60;0.60;;;19.30;79.50;;;;;;6149683;23;20005;-82
2022/09/28 11:32:49;;;;;;;0.60;0.60;;;18.90;90.70;;;;;;6150280;23;20459;-81
2022/09/28 11:35:19;;;;;;;0.60;0.60;;;18.20;90.80;;;;;;6173926;23;20088;-82
2022/09/28 11:37:59;;;;;;;0.70;0.70;;;18.30;80.50;;;;;;6149766;23;20039;-76
2022/09/28 11:40:54;;;;;;;0.63;0.63;;;18.40;81.20;;;;;;6150641;23;20388;-78
2022/09/28 11:43:38;;;;;;;0.70;0.70;;;18.40;91.50;;;;;;6150276;23;20025;-75
2022/09/28 11:46:23;;;;;;;0.80;0.80;;;18.70;80.90;;;;;;6149382;23;20009;-76
2022/09/28 11:48:59;;;;;;;1.15;0.68;;;18.90;79.90;;;;;;6150302;23;20464;-76
2022/09/28 11:51:35;;;;;;;0.60;0.60;;;19.00;79.40;;;;;;6150171;23;20065;-76
2022/09/28 11:54:13;;;;;;;8.18;0.90;;;18.80;80.50;;;;;;6149736;23;20484;-82
2022/09/28 11:56:41;;;;;;;0.50;0.50;;;18.50;82.70;;;;;;6152108;23;20018;-91
2022/09/28 11:59:37;;;;;;;0.60;0.60;;;18.20;85.60;;;;;;6154517;23;20032;-91
2022/09/28 12:02:19;;;;;;;7.03;0.80;;;17.80;90.60;;;;;;6153051;23;20006;-82
2022/09/28 12:04:56;;;;;;;1.02;0.90;;;17.70;91.10;;;;;;6152142;23;20368;-81
2022/09/28 12:07:22;;;;;;;0.85;0.80;;;;;;;;;;6151436;23;20319;-81
2022/09/28 12:09:58;;;;;;;1.70;0.70;;;17.50;92.50;;;;;;6152464;23;20056;-81
2022/09/28 12:12:59;;;;;;;0.70;0.70;;;17.20;95.10;;;;;;6151838;23;20008;-81
2022/09/28 12:15:33;;;;;;;1.25;0.70;;;17.20;95.70;;;;;;6132669;23;20014;-80
2022/09/28 12:18:12;;;;;;;1.58;0.90;;;16.90;95.20;;;;;;6152060;23;20070;-82
2022/09/28 12:20:43;;;;;;;0.70;0.65;;;16.80;97.00;;;;;;6151740;23;20050;-82
2022/09/28 12:23:24;;;;;;;0.77;0.73;;;17.10;96.00;;;;;;6151736;23;20054;-80
2022/09/28 12:26:09;;;;;;;0.75;0.75;;;17.80;99.90;;;;;;6152426;23;20005;-80
2022/09/28 12:28:40;;;;;;;0.75;0.75;;;17.80;94.70;;;;;;6151679;23;20453;-80
2022/09/28 12:31:22;;;;;;;0.90;0.90;;;17.80;94.80;;;;;;6151610;23;20444;-81
2022/09/28 12:33:50;;;;;;;2.92;0.80;;;17.90;94.80;;;;;;6151852;23;20009;-76
2022/09/28 12:36:54;;;;;;;2.05;0.80;;;18.10;94.80;;;;;;6151398;23;20054;-77
2022/09/28 12:39:51;;;;;;;0.82;0.82;;;18.30;99.90;;;;;;6152163;23;20005;-80
2022/09/28 12:42:38;;;;;;;12.18;4.88;;;18.60;95.00;;;;;;6060598;23;20021;-80
2022/09/28 12:45:19;;;;;;;2.20;1.83;;;18.90;99.40;;;;;;6060804;23;20085;-81
2022/09/28 12:48:02;;;;;;;1.98;1.33;;;18.90;96.90;;;;;;6061342;23;20050;-79
2022/09/28 12:50:28;;;;;;;3.20;2.00;;;;;;;;;;6060117;23;20026;-80
2022/09/28 12:53:06;;;;;;;1.63;1.13;;;18.40;94.60;;;;;;6060879;23;20011;-81
2022/09/28 12:55:43;;;;;;;0.80;0.80;;;18.00;99.90;;;;;;6060766;23;20011;-82
2022/09/28 12:58:31;;;;;;;6.93;1.73;;;17.30;97.30;;;;;;6060096;23;20489;-79
2022/09/28 13:00:57;;;;;;;0.47;0.47;;;;;;;;;;6059621;23;20919;-89
2022/09/28 13:03:51;;;;;;;0.60;0.60;;;16.00;99.60;;;;;;6059647;23;20045;-83
2022/09/28 13:06:44;;;;;;;0.60;0.60;;;16.00;99.90;;;;;;6060262;23;20015;-87
2022/09/28 13:09:20;;;;;;;0.90;0.90;;;16.40;99.90;;;;;;6037556;23;20030;-82
2022/09/28 13:12:16;;;;;;;0.60;0.60;;;16.10;99.90;;;;;;6035999;23;20434;-79
2022/09/28 13:15:00;;;;;;;0.57;0.57;;;17.10;99.70;;;;;;6060242;23;20086;-86
2022/09/28 13:17:43;;;;;;;0.60;0.60;;;16.80;99.60;;;;;;6061176;23;20107;-81
2022/09/28 13:20:12;;;;;;;1.50;1.42;;;16.80;98.80;;;;;;6144119;23;20543;-81
2022/09/28 13:22:38;;;;;;;1.52;1.00;;;;;;;;;;6151307;23;20041;-80
2022/09/28 13:25:15;;;;;;;0.93;0.65;;;16.50;99.90;;;;;;6151446;23;20100;-86
2022/09/28 13:27:46;;;;;;;1.05;0.80;;;16.70;98.90;;;;;;6151763;23;20025;-86
2022/09/28 13:30:14;;;;;;;0.85;0.85;;;18.00;99.30;;;;;;6151238;23;20304;-85
2022/09/28 13:32:41;;;;;;;0.60;0.60;;;16.70;99.20;;;;;;6149508;23;20349;-85
2022/09/28 13:35:14;;;;;;;0.60;0.60;;;16.60;99.90;;;;;;6151978;23;20010;-87
2022/09/28 13:37:40;;;;;;;0.73;0.73;;;;;;;;;;6174420;23;20032;-86
2022/09/28 13:40:06;;;;;;;0.80;0.80;;;16.60;99.00;;;;;;6149532;23;20088;-86
2022/09/28 13:42:32;;;;;;;1.10;1.10;;;;;;;;;;6153089;23;20084;-89
2022/09/28 13:45:10;;;;;;;0.60;0.60;;;16.10;99.90;;;;;;6152629;23;20145;-90
2022/09/28 13:47:51;;;;;;;0.50;0.50;;;16.30;99.90;;;;;;6153017;23;20470;-89
2022/09/28 13:50:51;;;;;;;1.13;0.90;;;16.10;99.40;;;;;;6153489;23;20118;-83
2022/09/28 13:53:44;;;;;;;1.10;1.10;;;15.90;99.90;;;;;;6151467;23;20005;-86
2022/09/28 13:56:36;;;;;;;1.13;0.95;;;16.00;99.90;;;;;;6174689;23;20009;-87
2022/09/28 13:59:15;;;;;;;0.90;0.90;;;16.00;99.90;;;;;;6152000;23;20021;-88